sensor_id;sensor_type;location;lat;lon;timestamp;P1;durP1;ratioP1;P2;durP2;ratioP2
9880;SDS011;4979;51.014;6.678;2023-04-25T00:00:46;10.55;;;3.63;;
9880;SDS011;4979;51.014;6.678;2023-04-25T00:03:12;15.40;;;4.15;;
9880;SDS011;4979;51.014;6.678;2023-04-25T00:05:38;13.00;;;3.97;;
9880;SDS011;4979;51.014;6.678;2023-04-25T00:08:04;9.80;;;4.70;;
9880;SDS011;4979;51.014;6.678;2023-04-25T00:10:30;9.73;;;3.70;;
9880;SDS011;4979;51.014;6.678;2023-04-25T00:12:56;15.90;;;4.25;;
9880;SDS011;4979;51.014;6.678;2023-04-25T00:15:22;15.07;;;4.22;;
9880;SDS011;4979;51.014;6.678;2023-04-25T00:17:49;11.13;;;4.25;;
9880;SDS011;4979;51.014;6.678;2023-04-25T00:20:14;7.78;;;4.60;;
9880;SDS011;4979;51.014;6.678;2023-04-25T00:22:40;13.10;;;4.05;;
9880;SDS011;4979;51.014;6.678;2023-04-25T00:25:06;12.80;;;4.43;;
9880;SDS011;4979;51.014;6.678;2023-04-25T00:27:32;8.73;;;3.85;;
9880;SDS011;4979;51.014;6.678;2023-04-25T00:29:58;11.10;;;4.05;;
9880;SDS011;4979;51.014;6.678;2023-04-25T00:32:24;14.23;;;4.45;;
9880;SDS011;4979;51.014;6.678;2023-04-25T00:34:50;17.40;;;4.60;;
9880;SDS011;4979;51.014;6.678;2023-04-25T00:37:16;12.70;;;4.00;;
9880;SDS011;4979;51.014;6.678;2023-04-25T00:39:43;13.45;;;4.28;;
9880;SDS011;4979;51.014;6.678;2023-04-25T00:42:08;10.95;;;4.43;;
9880;SDS011;4979;51.014;6.678;2023-04-25T00:44:35;10.65;;;5.03;;
9880;SDS011;4979;51.014;6.678;2023-04-25T00:47:02;14.52;;;5.22;;
9880;SDS011;4979;51.014;6.678;2023-04-25T00:49:29;15.27;;;4.93;;
9880;SDS011;4979;51.014;6.678;2023-04-25T00:51:54;15.23;;;4.35;;
9880;SDS011;4979;51.014;6.678;2023-04-25T00:54:21;11.43;;;4.50;;
9880;SDS011;4979;51.014;6.678;2023-04-25T00:56:47;14.13;;;3.90;;
9880;SDS011;4979;51.014;6.678;2023-04-25T00:59:13;11.57;;;4.40;;
9880;SDS011;4979;51.014;6.678;2023-04-25T01:01:40;10.07;;;4.45;;
9880;SDS011;4979;51.014;6.678;2023-04-25T01:04:06;15.15;;;4.97;;
9880;SDS011;4979;51.014;6.678;2023-04-25T01:06:32;18.83;;;4.93;;
9880;SDS011;4979;51.014;6.678;2023-04-25T01:08:58;15.25;;;5.10;;
9880;SDS011;4979;51.014;6.678;2023-04-25T01:11:24;15.52;;;4.95;;
9880;SDS011;4979;51.014;6.678;2023-04-25T01:13:50;17.42;;;4.85;;
9880;SDS011;4979;51.014;6.678;2023-04-25T01:16:16;17.25;;;5.47;;
9880;SDS011;4979;51.014;6.678;2023-04-25T01:18:41;18.50;;;4.65;;
9880;SDS011;4979;51.014;6.678;2023-04-25T01:21:11;12.45;;;5.20;;
9880;SDS011;4979;51.014;6.678;2023-04-25T01:23:40;11.88;;;4.57;;
9880;SDS011;4979;51.014;6.678;2023-04-25T01:26:07;10.98;;;4.82;;
9880;SDS011;4979;51.014;6.678;2023-04-25T01:28:34;11.68;;;4.97;;
9880;SDS011;4979;51.014;6.678;2023-04-25T01:31:01;14.43;;;4.20;;
9880;SDS011;4979;51.014;6.678;2023-04-25T01:33:26;15.35;;;4.32;;
9880;SDS011;4979;51.014;6.678;2023-04-25T01:35:52;18.45;;;5.40;;
9880;SDS011;4979;51.014;6.678;2023-04-25T01:38:18;14.55;;;4.85;;
9880;SDS011;4979;51.014;6.678;2023-04-25T01:40:44;9.27;;;4.72;;
9880;SDS011;4979;51.014;6.678;2023-04-25T01:43:12;16.80;;;5.28;;
9880;SDS011;4979;51.014;6.678;2023-04-25T01:45:39;10.80;;;4.60;;
9880;SDS011;4979;51.014;6.678;2023-04-25T01:48:06;15.63;;;4.60;;
9880;SDS011;4979;51.014;6.678;2023-04-25T01:50:37;14.85;;;4.72;;
9880;SDS011;4979;51.014;6.678;2023-04-25T01:53:03;10.82;;;4.40;;
9880;SDS011;4979;51.014;6.678;2023-04-25T01:55:30;13.48;;;4.85;;
9880;SDS011;4979;51.014;6.678;2023-04-25T01:57:55;11.35;;;4.85;;
9880;SDS011;4979;51.014;6.678;2023-04-25T02:00:21;14.27;;;4.65;;
9880;SDS011;4979;51.014;6.678;2023-04-25T02:02:47;15.18;;;4.88;;
9880;SDS011;4979;51.014;6.678;2023-04-25T02:05:15;19.08;;;4.80;;
9880;SDS011;4979;51.014;6.678;2023-04-25T02:07:41;12.75;;;4.25;;
9880;SDS011;4979;51.014;6.678;2023-04-25T02:10:07;12.27;;;4.13;;
9880;SDS011;4979;51.014;6.678;2023-04-25T02:12:35;13.02;;;4.72;;
9880;SDS011;4979;51.014;6.678;2023-04-25T02:15:00;8.43;;;4.35;;
9880;SDS011;4979;51.014;6.678;2023-04-25T02:17:26;19.20;;;4.32;;
9880;SDS011;4979;51.014;6.678;2023-04-25T02:19:52;7.97;;;3.92;;
9880;SDS011;4979;51.014;6.678;2023-04-25T02:22:18;11.43;;;4.50;;
9880;SDS011;4979;51.014;6.678;2023-04-25T02:24:43;7.35;;;3.67;;
9880;SDS011;4979;51.014;6.678;2023-04-25T02:27:11;14.52;;;4.65;;
9880;SDS011;4979;51.014;6.678;2023-04-25T02:29:37;11.57;;;4.32;;
9880;SDS011;4979;51.014;6.678;2023-04-25T02:32:03;17.98;;;4.50;;
9880;SDS011;4979;51.014;6.678;2023-04-25T02:34:29;12.65;;;3.78;;
9880;SDS011;4979;51.014;6.678;2023-04-25T02:36:54;13.68;;;4.35;;
9880;SDS011;4979;51.014;6.678;2023-04-25T02:39:20;12.98;;;4.00;;
9880;SDS011;4979;51.014;6.678;2023-04-25T02:41:47;10.82;;;4.13;;
9880;SDS011;4979;51.014;6.678;2023-04-25T02:44:12;9.00;;;3.97;;
9880;SDS011;4979;51.014;6.678;2023-04-25T02:46:38;11.27;;;4.03;;
9880;SDS011;4979;51.014;6.678;2023-04-25T02:49:04;14.25;;;4.03;;
9880;SDS011;4979;51.014;6.678;2023-04-25T02:51:30;11.45;;;3.95;;
9880;SDS011;4979;51.014;6.678;2023-04-25T02:53:55;15.15;;;4.05;;
9880;SDS011;4979;51.014;6.678;2023-04-25T02:56:21;12.13;;;5.55;;
9880;SDS011;4979;51.014;6.678;2023-04-25T02:58:47;9.63;;;3.67;;
9880;SDS011;4979;51.014;6.678;2023-04-25T03:01:12;8.60;;;4.13;;
9880;SDS011;4979;51.014;6.678;2023-04-25T03:03:38;14.90;;;4.53;;
9880;SDS011;4979;51.014;6.678;2023-04-25T03:06:04;9.52;;;4.55;;
9880;SDS011;4979;51.014;6.678;2023-04-25T03:08:30;12.65;;;4.05;;
9880;SDS011;4979;51.014;6.678;2023-04-25T03:10:57;15.90;;;4.15;;
9880;SDS011;4979;51.014;6.678;2023-04-25T03:13:23;15.18;;;4.50;;
9880;SDS011;4979;51.014;6.678;2023-04-25T03:15:49;15.13;;;4.93;;
9880;SDS011;4979;51.014;6.678;2023-04-25T03:18:15;10.52;;;4.47;;
9880;SDS011;4979;51.014;6.678;2023-04-25T03:20:40;17.55;;;5.10;;
9880;SDS011;4979;51.014;6.678;2023-04-25T03:23:06;12.00;;;4.75;;
9880;SDS011;4979;51.014;6.678;2023-04-25T03:25:32;15.10;;;4.97;;
9880;SDS011;4979;51.014;6.678;2023-04-25T03:27:58;11.82;;;5.10;;
9880;SDS011;4979;51.014;6.678;2023-04-25T03:30:24;15.55;;;5.10;;
9880;SDS011;4979;51.014;6.678;2023-04-25T03:32:50;18.88;;;4.70;;
9880;SDS011;4979;51.014;6.678;2023-04-25T03:35:15;10.65;;;4.72;;
9880;SDS011;4979;51.014;6.678;2023-04-25T03:37:41;12.32;;;4.43;;
9880;SDS011;4979;51.014;6.678;2023-04-25T03:40:10;12.02;;;5.32;;
9880;SDS011;4979;51.014;6.678;2023-04-25T03:42:36;14.63;;;4.82;;
9880;SDS011;4979;51.014;6.678;2023-04-25T03:45:02;17.15;;;5.80;;
9880;SDS011;4979;51.014;6.678;2023-04-25T03:47:27;9.90;;;4.82;;
9880;SDS011;4979;51.014;6.678;2023-04-25T03:49:53;9.98;;;4.70;;
9880;SDS011;4979;51.014;6.678;2023-04-25T03:52:18;13.10;;;4.82;;
9880;SDS011;4979;51.014;6.678;2023-04-25T03:54:44;13.90;;;5.25;;
9880;SDS011;4979;51.014;6.678;2023-04-25T03:57:10;15.23;;;6.00;;
9880;SDS011;4979;51.014;6.678;2023-04-25T03:59:36;18.17;;;4.60;;
9880;SDS011;4979;51.014;6.678;2023-04-25T04:02:01;11.85;;;4.25;;
9880;SDS011;4979;51.014;6.678;2023-04-25T04:04:27;13.20;;;4.65;;
9880;SDS011;4979;51.014;6.678;2023-04-25T04:06:52;12.13;;;4.82;;
9880;SDS011;4979;51.014;6.678;2023-04-25T04:09:18;18.35;;;4.88;;
9880;SDS011;4979;51.014;6.678;2023-04-25T04:11:44;8.50;;;4.45;;
9880;SDS011;4979;51.014;6.678;2023-04-25T04:14:10;14.77;;;4.60;;
9880;SDS011;4979;51.014;6.678;2023-04-25T04:16:35;12.48;;;4.55;;
9880;SDS011;4979;51.014;6.678;2023-04-25T04:19:01;16.80;;;5.10;;
9880;SDS011;4979;51.014;6.678;2023-04-25T04:21:27;13.55;;;4.63;;
9880;SDS011;4979;51.014;6.678;2023-04-25T04:23:52;15.48;;;4.60;;
9880;SDS011;4979;51.014;6.678;2023-04-25T04:26:19;12.07;;;5.78;;
9880;SDS011;4979;51.014;6.678;2023-04-25T04:28:48;14.38;;;4.40;;
9880;SDS011;4979;51.014;6.678;2023-04-25T04:31:15;14.38;;;4.22;;
9880;SDS011;4979;51.014;6.678;2023-04-25T04:33:43;12.75;;;4.72;;
9880;SDS011;4979;51.014;6.678;2023-04-25T04:36:09;10.20;;;4.22;;
9880;SDS011;4979;51.014;6.678;2023-04-25T04:38:35;16.35;;;4.60;;
9880;SDS011;4979;51.014;6.678;2023-04-25T04:41:01;20.08;;;4.78;;
9880;SDS011;4979;51.014;6.678;2023-04-25T04:43:27;14.88;;;5.25;;
9880;SDS011;4979;51.014;6.678;2023-04-25T04:45:53;17.92;;;5.05;;
9880;SDS011;4979;51.014;6.678;2023-04-25T04:48:21;14.90;;;4.30;;
9880;SDS011;4979;51.014;6.678;2023-04-25T04:50:46;17.60;;;4.82;;
9880;SDS011;4979;51.014;6.678;2023-04-25T04:53:12;19.70;;;5.07;;
9880;SDS011;4979;51.014;6.678;2023-04-25T04:55:38;11.70;;;4.72;;
9880;SDS011;4979;51.014;6.678;2023-04-25T04:58:06;16.42;;;6.28;;
9880;SDS011;4979;51.014;6.678;2023-04-25T05:00:32;11.25;;;4.80;;
9880;SDS011;4979;51.014;6.678;2023-04-25T05:02:58;13.25;;;5.00;;
9880;SDS011;4979;51.014;6.678;2023-04-25T05:05:24;12.38;;;5.15;;
9880;SDS011;4979;51.014;6.678;2023-04-25T05:07:50;12.32;;;4.97;;
9880;SDS011;4979;51.014;6.678;2023-04-25T05:10:16;14.85;;;4.95;;
9880;SDS011;4979;51.014;6.678;2023-04-25T05:12:42;17.65;;;5.45;;
9880;SDS011;4979;51.014;6.678;2023-04-25T05:15:08;16.35;;;5.13;;
9880;SDS011;4979;51.014;6.678;2023-04-25T05:17:34;14.65;;;5.07;;
9880;SDS011;4979;51.014;6.678;2023-04-25T05:20:00;9.70;;;4.03;;
9880;SDS011;4979;51.014;6.678;2023-04-25T05:22:25;17.50;;;4.93;;
9880;SDS011;4979;51.014;6.678;2023-04-25T05:24:51;16.63;;;5.25;;
9880;SDS011;4979;51.014;6.678;2023-04-25T05:27:17;14.63;;;5.13;;
9880;SDS011;4979;51.014;6.678;2023-04-25T05:29:43;19.40;;;5.65;;
9880;SDS011;4979;51.014;6.678;2023-04-25T05:32:09;12.60;;;4.35;;
9880;SDS011;4979;51.014;6.678;2023-04-25T05:34:35;18.17;;;5.13;;
9880;SDS011;4979;51.014;6.678;2023-04-25T05:37:01;14.05;;;4.45;;
9880;SDS011;4979;51.014;6.678;2023-04-25T05:39:26;16.50;;;4.70;;
9880;SDS011;4979;51.014;6.678;2023-04-25T05:41:52;11.23;;;4.10;;
9880;SDS011;4979;51.014;6.678;2023-04-25T05:44:18;10.02;;;3.90;;
9880;SDS011;4979;51.014;6.678;2023-04-25T05:46:44;16.17;;;4.43;;
9880;SDS011;4979;51.014;6.678;2023-04-25T05:49:10;13.20;;;5.18;;
9880;SDS011;4979;51.014;6.678;2023-04-25T05:51:35;15.20;;;4.40;;
9880;SDS011;4979;51.014;6.678;2023-04-25T05:54:01;10.90;;;4.38;;
9880;SDS011;4979;51.014;6.678;2023-04-25T05:56:26;14.88;;;5.00;;
9880;SDS011;4979;51.014;6.678;2023-04-25T05:58:52;10.25;;;4.35;;
9880;SDS011;4979;51.014;6.678;2023-04-25T06:01:18;9.02;;;4.00;;
9880;SDS011;4979;51.014;6.678;2023-04-25T06:03:44;18.48;;;4.18;;
9880;SDS011;4979;51.014;6.678;2023-04-25T06:06:10;10.82;;;3.10;;
9880;SDS011;4979;51.014;6.678;2023-04-25T06:08:36;10.68;;;3.90;;
9880;SDS011;4979;51.014;6.678;2023-04-25T06:11:03;14.18;;;4.05;;
9880;SDS011;4979;51.014;6.678;2023-04-25T06:13:29;10.57;;;3.60;;
9880;SDS011;4979;51.014;6.678;2023-04-25T06:15:55;15.85;;;5.38;;
9880;SDS011;4979;51.014;6.678;2023-04-25T06:18:21;17.15;;;4.25;;
9880;SDS011;4979;51.014;6.678;2023-04-25T06:20:46;12.20;;;4.18;;
9880;SDS011;4979;51.014;6.678;2023-04-25T06:23:12;17.00;;;4.80;;
9880;SDS011;4979;51.014;6.678;2023-04-25T06:25:38;8.18;;;3.30;;
9880;SDS011;4979;51.014;6.678;2023-04-25T06:28:03;17.80;;;4.07;;
9880;SDS011;4979;51.014;6.678;2023-04-25T06:30:29;15.07;;;4.47;;
9880;SDS011;4979;51.014;6.678;2023-04-25T06:32:55;13.63;;;4.50;;
9880;SDS011;4979;51.014;6.678;2023-04-25T06:35:20;27.05;;;4.50;;
9880;SDS011;4979;51.014;6.678;2023-04-25T06:37:46;13.68;;;4.75;;
9880;SDS011;4979;51.014;6.678;2023-04-25T06:40:11;13.30;;;4.43;;
9880;SDS011;4979;51.014;6.678;2023-04-25T06:42:37;13.10;;;4.43;;
9880;SDS011;4979;51.014;6.678;2023-04-25T06:45:03;16.88;;;4.65;;
9880;SDS011;4979;51.014;6.678;2023-04-25T06:47:28;12.73;;;3.72;;
9880;SDS011;4979;51.014;6.678;2023-04-25T06:49:54;15.85;;;4.65;;
9880;SDS011;4979;51.014;6.678;2023-04-25T06:52:20;14.50;;;4.70;;
9880;SDS011;4979;51.014;6.678;2023-04-25T06:54:46;12.00;;;3.90;;
9880;SDS011;4979;51.014;6.678;2023-04-25T06:57:12;6.90;;;3.17;;
9880;SDS011;4979;51.014;6.678;2023-04-25T06:59:38;15.52;;;4.28;;
9880;SDS011;4979;51.014;6.678;2023-04-25T07:02:03;14.63;;;3.63;;
9880;SDS011;4979;51.014;6.678;2023-04-25T07:04:30;12.90;;;4.18;;
9880;SDS011;4979;51.014;6.678;2023-04-25T07:06:56;9.77;;;2.60;;
9880;SDS011;4979;51.014;6.678;2023-04-25T07:09:22;12.32;;;3.20;;
9880;SDS011;4979;51.014;6.678;2023-04-25T07:11:48;11.85;;;3.38;;
9880;SDS011;4979;51.014;6.678;2023-04-25T07:14:13;20.25;;;4.10;;
9880;SDS011;4979;51.014;6.678;2023-04-25T07:16:39;21.48;;;4.18;;
9880;SDS011;4979;51.014;6.678;2023-04-25T07:19:06;6.90;;;3.30;;
9880;SDS011;4979;51.014;6.678;2023-04-25T07:21:32;6.95;;;3.38;;
9880;SDS011;4979;51.014;6.678;2023-04-25T07:23:57;9.57;;;3.28;;
9880;SDS011;4979;51.014;6.678;2023-04-25T07:26:23;11.95;;;3.47;;
9880;SDS011;4979;51.014;6.678;2023-04-25T07:28:49;12.48;;;4.25;;
9880;SDS011;4979;51.014;6.678;2023-04-25T07:31:16;7.53;;;3.45;;
9880;SDS011;4979;51.014;6.678;2023-04-25T07:33:43;15.05;;;3.10;;
9880;SDS011;4979;51.014;6.678;2023-04-25T07:36:10;14.70;;;3.83;;
9880;SDS011;4979;51.014;6.678;2023-04-25T07:38:35;9.48;;;4.07;;
9880;SDS011;4979;51.014;6.678;2023-04-25T07:41:01;12.88;;;3.35;;
9880;SDS011;4979;51.014;6.678;2023-04-25T07:43:27;12.60;;;3.65;;
9880;SDS011;4979;51.014;6.678;2023-04-25T07:45:52;15.43;;;3.88;;
9880;SDS011;4979;51.014;6.678;2023-04-25T07:48:18;12.52;;;3.78;;
9880;SDS011;4979;51.014;6.678;2023-04-25T07:50:44;12.43;;;3.88;;
9880;SDS011;4979;51.014;6.678;2023-04-25T07:53:10;16.17;;;4.28;;
9880;SDS011;4979;51.014;6.678;2023-04-25T07:55:36;20.70;;;3.95;;
9880;SDS011;4979;51.014;6.678;2023-04-25T07:58:04;10.63;;;3.35;;
9880;SDS011;4979;51.014;6.678;2023-04-25T08:00:30;8.05;;;2.88;;
9880;SDS011;4979;51.014;6.678;2023-04-25T08:02:56;10.90;;;3.10;;
9880;SDS011;4979;51.014;6.678;2023-04-25T08:05:22;8.68;;;3.85;;
9880;SDS011;4979;51.014;6.678;2023-04-25T08:07:48;12.88;;;3.10;;
9880;SDS011;4979;51.014;6.678;2023-04-25T08:10:15;11.10;;;4.00;;
9880;SDS011;4979;51.014;6.678;2023-04-25T08:12:40;7.82;;;3.08;;
9880;SDS011;4979;51.014;6.678;2023-04-25T08:15:06;10.40;;;2.80;;
9880;SDS011;4979;51.014;6.678;2023-04-25T08:17:32;10.35;;;3.13;;
9880;SDS011;4979;51.014;6.678;2023-04-25T08:19:57;7.75;;;2.65;;
9880;SDS011;4979;51.014;6.678;2023-04-25T08:22:23;10.82;;;2.70;;
9880;SDS011;4979;51.014;6.678;2023-04-25T08:24:49;11.93;;;3.10;;
9880;SDS011;4979;51.014;6.678;2023-04-25T08:27:15;10.27;;;2.50;;
9880;SDS011;4979;51.014;6.678;2023-04-25T08:29:41;13.02;;;3.00;;
9880;SDS011;4979;51.014;6.678;2023-04-25T08:32:07;9.57;;;2.78;;
9880;SDS011;4979;51.014;6.678;2023-04-25T08:34:33;8.60;;;2.72;;
9880;SDS011;4979;51.014;6.678;2023-04-25T08:36:59;8.38;;;2.63;;
9880;SDS011;4979;51.014;6.678;2023-04-25T08:39:25;10.15;;;2.58;;
9880;SDS011;4979;51.014;6.678;2023-04-25T08:41:51;8.70;;;2.80;;
9880;SDS011;4979;51.014;6.678;2023-04-25T08:44:17;13.35;;;2.80;;
9880;SDS011;4979;51.014;6.678;2023-04-25T08:46:44;9.77;;;2.85;;
9880;SDS011;4979;51.014;6.678;2023-04-25T08:49:14;6.03;;;2.13;;
9880;SDS011;4979;51.014;6.678;2023-04-25T08:51:45;9.02;;;3.33;;
9880;SDS011;4979;51.014;6.678;2023-04-25T08:54:12;12.48;;;3.63;;
9880;SDS011;4979;51.014;6.678;2023-04-25T08:56:45;8.52;;;2.55;;
9880;SDS011;4979;51.014;6.678;2023-04-25T08:59:12;4.30;;;2.58;;
9880;SDS011;4979;51.014;6.678;2023-04-25T09:01:38;13.02;;;3.03;;
9880;SDS011;4979;51.014;6.678;2023-04-25T09:04:04;8.30;;;2.30;;
9880;SDS011;4979;51.014;6.678;2023-04-25T09:06:31;8.15;;;2.95;;
9880;SDS011;4979;51.014;6.678;2023-04-25T09:09:03;8.38;;;3.17;;
9880;SDS011;4979;51.014;6.678;2023-04-25T09:11:31;11.68;;;3.00;;
9880;SDS011;4979;51.014;6.678;2023-04-25T09:19:24;8.85;;;2.60;;
9880;SDS011;4979;51.014;6.678;2023-04-25T09:21:55;7.78;;;2.60;;
9880;SDS011;4979;51.014;6.678;2023-04-25T09:24:34;10.45;;;2.35;;
9880;SDS011;4979;51.014;6.678;2023-04-25T09:27:08;7.72;;;2.22;;
9880;SDS011;4979;51.014;6.678;2023-04-25T09:29:36;6.95;;;2.50;;
9880;SDS011;4979;51.014;6.678;2023-04-25T09:34:41;11.95;;;2.55;;
9880;SDS011;4979;51.014;6.678;2023-04-25T09:37:11;10.02;;;3.03;;
9880;SDS011;4979;51.014;6.678;2023-04-25T09:39:37;7.53;;;1.95;;
9880;SDS011;4979;51.014;6.678;2023-04-25T09:42:04;6.53;;;2.95;;
9880;SDS011;4979;51.014;6.678;2023-04-25T09:44:29;14.40;;;3.08;;
9880;SDS011;4979;51.014;6.678;2023-04-25T09:46:55;14.73;;;3.80;;
9880;SDS011;4979;51.014;6.678;2023-04-25T09:49:22;7.97;;;2.88;;
9880;SDS011;4979;51.014;6.678;2023-04-25T09:51:54;8.20;;;2.80;;
9880;SDS011;4979;51.014;6.678;2023-04-25T09:54:21;9.55;;;2.88;;
9880;SDS011;4979;51.014;6.678;2023-04-25T09:56:47;10.90;;;2.47;;
9880;SDS011;4979;51.014;6.678;2023-04-25T09:59:16;6.18;;;2.35;;
9880;SDS011;4979;51.014;6.678;2023-04-25T10:01:43;7.18;;;2.75;;
9880;SDS011;4979;51.014;6.678;2023-04-25T10:04:12;8.68;;;2.47;;
9880;SDS011;4979;51.014;6.678;2023-04-25T10:06:46;10.88;;;2.63;;
9880;SDS011;4979;51.014;6.678;2023-04-25T10:09:14;9.82;;;2.30;;
9880;SDS011;4979;51.014;6.678;2023-04-25T10:11:40;7.47;;;2.33;;
9880;SDS011;4979;51.014;6.678;2023-04-25T10:14:06;8.07;;;2.38;;
9880;SDS011;4979;51.014;6.678;2023-04-25T10:16:32;8.25;;;2.50;;
9880;SDS011;4979;51.014;6.678;2023-04-25T10:18:58;9.05;;;2.20;;
9880;SDS011;4979;51.014;6.678;2023-04-25T10:21:24;6.97;;;2.85;;
9880;SDS011;4979;51.014;6.678;2023-04-25T10:23:53;12.32;;;3.22;;
9880;SDS011;4979;51.014;6.678;2023-04-25T10:26:19;5.80;;;2.67;;
9880;SDS011;4979;51.014;6.678;2023-04-25T10:28:55;9.52;;;2.25;;
9880;SDS011;4979;51.014;6.678;2023-04-25T10:31:21;7.95;;;2.33;;
9880;SDS011;4979;51.014;6.678;2023-04-25T10:33:47;7.50;;;2.28;;
9880;SDS011;4979;51.014;6.678;2023-04-25T10:36:15;4.70;;;2.20;;
9880;SDS011;4979;51.014;6.678;2023-04-25T10:38:43;5.57;;;1.83;;
9880;SDS011;4979;51.014;6.678;2023-04-25T10:41:10;2.75;;;1.50;;
9880;SDS011;4979;51.014;6.678;2023-04-25T10:46:16;8.02;;;2.28;;
9880;SDS011;4979;51.014;6.678;2023-04-25T10:48:50;5.35;;;1.83;;
9880;SDS011;4979;51.014;6.678;2023-04-25T10:51:17;5.40;;;1.75;;
9880;SDS011;4979;51.014;6.678;2023-04-25T10:54:03;5.13;;;1.85;;
9880;SDS011;4979;51.014;6.678;2023-04-25T10:56:35;6.55;;;2.03;;
9880;SDS011;4979;51.014;6.678;2023-04-25T10:59:05;5.72;;;1.85;;
9880;SDS011;4979;51.014;6.678;2023-04-25T11:01:41;6.75;;;2.40;;
9880;SDS011;4979;51.014;6.678;2023-04-25T11:04:21;3.42;;;1.67;;
9880;SDS011;4979;51.014;6.678;2023-04-25T11:06:58;5.53;;;1.92;;
9880;SDS011;4979;51.014;6.678;2023-04-25T11:09:45;10.63;;;1.90;;
9880;SDS011;4979;51.014;6.678;2023-04-25T11:12:11;4.75;;;1.90;;
9880;SDS011;4979;51.014;6.678;2023-04-25T11:14:37;6.15;;;2.28;;
9880;SDS011;4979;51.014;6.678;2023-04-25T11:17:03;5.10;;;1.67;;
9880;SDS011;4979;51.014;6.678;2023-04-25T11:19:30;5.63;;;1.63;;
9880;SDS011;4979;51.014;6.678;2023-04-25T11:21:57;4.55;;;1.83;;
9880;SDS011;4979;51.014;6.678;2023-04-25T11:24:33;4.25;;;1.80;;
9880;SDS011;4979;51.014;6.678;2023-04-25T11:27:00;5.93;;;2.67;;
9880;SDS011;4979;51.014;6.678;2023-04-25T11:29:29;5.93;;;1.60;;
9880;SDS011;4979;51.014;6.678;2023-04-25T11:31:56;4.20;;;1.92;;
9880;SDS011;4979;51.014;6.678;2023-04-25T11:34:25;7.95;;;2.00;;
9880;SDS011;4979;51.014;6.678;2023-04-25T11:36:52;3.13;;;1.65;;
9880;SDS011;4979;51.014;6.678;2023-04-25T11:39:18;7.18;;;1.80;;
9880;SDS011;4979;51.014;6.678;2023-04-25T11:41:45;1.92;;;1.40;;
9880;SDS011;4979;51.014;6.678;2023-04-25T11:44:11;2.35;;;1.50;;
9880;SDS011;4979;51.014;6.678;2023-04-25T11:46:37;9.05;;;1.63;;
9880;SDS011;4979;51.014;6.678;2023-04-25T11:49:02;5.70;;;2.45;;
9880;SDS011;4979;51.014;6.678;2023-04-25T11:51:29;6.60;;;2.17;;
9880;SDS011;4979;51.014;6.678;2023-04-25T11:53:56;4.00;;;1.50;;
9880;SDS011;4979;51.014;6.678;2023-04-25T11:56:22;3.55;;;1.73;;
9880;SDS011;4979;51.014;6.678;2023-04-25T11:58:57;3.72;;;2.08;;
9880;SDS011;4979;51.014;6.678;2023-04-25T12:01:30;5.10;;;2.10;;
9880;SDS011;4979;51.014;6.678;2023-04-25T12:04:19;8.55;;;2.03;;
9880;SDS011;4979;51.014;6.678;2023-04-25T12:06:47;6.68;;;2.20;;
9880;SDS011;4979;51.014;6.678;2023-04-25T12:09:14;6.25;;;2.03;;
9880;SDS011;4979;51.014;6.678;2023-04-25T12:11:47;5.07;;;1.65;;
9880;SDS011;4979;51.014;6.678;2023-04-25T12:14:26;2.90;;;1.30;;
9880;SDS011;4979;51.014;6.678;2023-04-25T12:16:57;6.20;;;2.22;;
9880;SDS011;4979;51.014;6.678;2023-04-25T12:19:24;7.05;;;2.28;;
9880;SDS011;4979;51.014;6.678;2023-04-25T12:21:51;4.28;;;1.80;;
9880;SDS011;4979;51.014;6.678;2023-04-25T12:24:17;4.97;;;2.22;;
9880;SDS011;4979;51.014;6.678;2023-04-25T12:26:53;4.88;;;1.67;;
9880;SDS011;4979;51.014;6.678;2023-04-25T12:29:29;7.75;;;3.15;;
9880;SDS011;4979;51.014;6.678;2023-04-25T12:31:56;5.25;;;2.50;;
9880;SDS011;4979;51.014;6.678;2023-04-25T12:34:22;5.15;;;2.28;;
9880;SDS011;4979;51.014;6.678;2023-04-25T12:36:48;4.88;;;1.90;;
9880;SDS011;4979;51.014;6.678;2023-04-25T12:39:18;6.47;;;1.48;;
9880;SDS011;4979;51.014;6.678;2023-04-25T12:41:48;5.53;;;2.10;;
9880;SDS011;4979;51.014;6.678;2023-04-25T12:44:19;8.90;;;2.10;;
9880;SDS011;4979;51.014;6.678;2023-04-25T12:46:46;7.55;;;2.38;;
9880;SDS011;4979;51.014;6.678;2023-04-25T12:49:12;3.35;;;1.90;;
9880;SDS011;4979;51.014;6.678;2023-04-25T12:51:37;4.50;;;2.25;;
9880;SDS011;4979;51.014;6.678;2023-04-25T12:54:04;5.10;;;1.77;;
9880;SDS011;4979;51.014;6.678;2023-04-25T12:56:31;5.65;;;1.60;;
9880;SDS011;4979;51.014;6.678;2023-04-25T12:58:57;7.47;;;1.80;;
9880;SDS011;4979;51.014;6.678;2023-04-25T13:01:23;3.05;;;1.58;;
9880;SDS011;4979;51.014;6.678;2023-04-25T13:03:49;6.00;;;1.90;;
9880;SDS011;4979;51.014;6.678;2023-04-25T13:06:15;6.47;;;2.30;;
9880;SDS011;4979;51.014;6.678;2023-04-25T13:08:41;5.22;;;1.80;;
9880;SDS011;4979;51.014;6.678;2023-04-25T13:11:07;5.03;;;1.80;;
9880;SDS011;4979;51.014;6.678;2023-04-25T13:13:33;4.55;;;1.70;;
9880;SDS011;4979;51.014;6.678;2023-04-25T13:16:00;4.00;;;2.30;;
9880;SDS011;4979;51.014;6.678;2023-04-25T13:18:30;4.22;;;1.65;;
9880;SDS011;4979;51.014;6.678;2023-04-25T13:20:56;2.70;;;1.20;;
9880;SDS011;4979;51.014;6.678;2023-04-25T13:23:22;3.45;;;1.40;;
9880;SDS011;4979;51.014;6.678;2023-04-25T13:25:48;2.95;;;1.17;;
9880;SDS011;4979;51.014;6.678;2023-04-25T13:28:14;3.03;;;1.50;;
9880;SDS011;4979;51.014;6.678;2023-04-25T13:30:40;4.53;;;1.17;;
9880;SDS011;4979;51.014;6.678;2023-04-25T13:33:07;5.70;;;1.80;;
9880;SDS011;4979;51.014;6.678;2023-04-25T13:35:33;2.47;;;1.30;;
9880;SDS011;4979;51.014;6.678;2023-04-25T13:38:00;3.85;;;1.63;;
9880;SDS011;4979;51.014;6.678;2023-04-25T13:40:26;2.22;;;1.50;;
9880;SDS011;4979;51.014;6.678;2023-04-25T13:42:53;4.55;;;1.77;;
9880;SDS011;4979;51.014;6.678;2023-04-25T13:45:19;4.00;;;1.60;;
9880;SDS011;4979;51.014;6.678;2023-04-25T13:47:45;4.00;;;1.60;;
9880;SDS011;4979;51.014;6.678;2023-04-25T13:50:11;5.65;;;1.73;;
9880;SDS011;4979;51.014;6.678;2023-04-25T13:52:38;1.30;;;1.17;;
9880;SDS011;4979;51.014;6.678;2023-04-25T13:55:04;2.70;;;0.90;;
9880;SDS011;4979;51.014;6.678;2023-04-25T13:57:31;2.35;;;1.10;;
9880;SDS011;4979;51.014;6.678;2023-04-25T13:59:57;1.92;;;1.10;;
9880;SDS011;4979;51.014;6.678;2023-04-25T14:02:24;3.10;;;1.48;;
9880;SDS011;4979;51.014;6.678;2023-04-25T14:04:50;4.10;;;1.40;;
9880;SDS011;4979;51.014;6.678;2023-04-25T14:07:15;1.13;;;0.93;;
9880;SDS011;4979;51.014;6.678;2023-04-25T14:09:41;3.38;;;1.40;;
9880;SDS011;4979;51.014;6.678;2023-04-25T14:12:07;3.67;;;0.90;;
9880;SDS011;4979;51.014;6.678;2023-04-25T14:14:32;2.75;;;0.98;;
9880;SDS011;4979;51.014;6.678;2023-04-25T14:16:58;1.52;;;1.00;;
9880;SDS011;4979;51.014;6.678;2023-04-25T14:19:24;3.70;;;1.40;;
9880;SDS011;4979;51.014;6.678;2023-04-25T14:21:50;4.68;;;1.55;;
9880;SDS011;4979;51.014;6.678;2023-04-25T14:24:15;6.82;;;1.42;;
9880;SDS011;4979;51.014;6.678;2023-04-25T14:26:41;5.75;;;1.92;;
9880;SDS011;4979;51.014;6.678;2023-04-25T14:29:07;3.55;;;1.77;;
9880;SDS011;4979;51.014;6.678;2023-04-25T14:31:36;6.75;;;1.85;;
9880;SDS011;4979;51.014;6.678;2023-04-25T14:34:02;4.60;;;2.00;;
9880;SDS011;4979;51.014;6.678;2023-04-25T14:36:28;6.60;;;2.20;;
9880;SDS011;4979;51.014;6.678;2023-04-25T14:38:54;5.43;;;1.73;;
9880;SDS011;4979;51.014;6.678;2023-04-25T14:41:20;6.35;;;1.58;;
9880;SDS011;4979;51.014;6.678;2023-04-25T14:43:46;3.33;;;1.70;;
9880;SDS011;4979;51.014;6.678;2023-04-25T14:46:11;4.05;;;1.58;;
9880;SDS011;4979;51.014;6.678;2023-04-25T14:48:37;3.67;;;1.83;;
9880;SDS011;4979;51.014;6.678;2023-04-25T14:51:03;2.20;;;1.40;;
9880;SDS011;4979;51.014;6.678;2023-04-25T14:53:30;4.22;;;1.40;;
9880;SDS011;4979;51.014;6.678;2023-04-25T14:55:56;4.75;;;1.50;;
9880;SDS011;4979;51.014;6.678;2023-04-25T14:58:22;6.93;;;1.60;;
9880;SDS011;4979;51.014;6.678;2023-04-25T15:00:47;2.85;;;1.50;;
9880;SDS011;4979;51.014;6.678;2023-04-25T15:03:13;2.22;;;1.63;;
9880;SDS011;4979;51.014;6.678;2023-04-25T15:05:41;3.78;;;1.73;;
9880;SDS011;4979;51.014;6.678;2023-04-25T15:08:07;4.40;;;1.38;;
9880;SDS011;4979;51.014;6.678;2023-04-25T15:10:33;2.95;;;1.55;;
9880;SDS011;4979;51.014;6.678;2023-04-25T15:12:59;4.72;;;1.40;;
9880;SDS011;4979;51.014;6.678;2023-04-25T15:15:25;4.20;;;1.77;;